Nikolaevsk, Alaska
Current Conditions -  °F | °C
As of 3:53 PM on Monday 22 Dec 2014 (Local Time) from PAHO Reporting Station
Overcast Overcast  
Wind Chill: 34°   Ceiling: 1000
Heat Index: 34°   Visibility: 7mi
Dew Point: 31°   Wind: 3mph
Humidity: 89%   Direction: 10°N
Pressure: 29.75"   Gusts: NA
Location:  59.8183°N, 151.638°W
Report Text: PAHO 230053Z 01003KT 7SM OVC010 01/M01 A2975 RMK AO2 SNE05 SLP077 P0000 T00111006
Loading
Personal Weather Stations






























Interactive Weather Map New forecast layout! Learn more

10-Day Weather Forecast

Advertisements
Track Severe Weather on mobile